Terminal Aerodrome Forecast
Issued by NWS Caribou, ME

Current Version | Previous Version | Text Only | Print | Product List | Glossary On
Versions: 1 2 3 4 5 6 7 8 9 10 11 12 13 14 15 16 17 18 19 20 21 22
439 FTUS41 KCAR 241612 AAG TAFCAR TAF AMD KCAR 241612Z 2416/2512 22005KT P6SM VCSH SCT022 OVC035 FM241800 20008KT 6SM -SHSN OVC028 FM242300 19009KT P6SM VCSH OVC035 FM250900 18010KT P6SM BKN045=

USA.gov is the U.S. government's official web portal to all federal, state and local government web resources and services.